MiSS Christi — WBM6513 — position and weather

sailwx.info

Track history (hours):
 
Tides and Currents Weather Stations Pressure Air Temp Water Temp Dewpoint Dewpoint Depression Visibility Wind Speed Wind Dir Waves Ship Positions

MiSS Christi

Owner: MISS CHRISTI INC, WEST HILLS, CA. More information available from US FCC via Universal Licensing System and Coast Guard Vessel Documentation Center.

Last reported at 2018-Feb-22 21:39 UTC. Time now 2018-Feb-23 10:48 UTC.
Position N 33°44' W 118°16'.

Length 15 m; draft 1.5 m.

Type: Passenger vessel. MMSI: 367311590.

Date/timePositionNaut miles runAvg speedWind from/ knotsBaromVisibWave heightAir tempDewpointWater temp
2018-Feb-22 21:39N 33°44' W 118°16'1 4.0
2018-Feb-22 21:30N 33°44' W 118°16'4 0.6
2018-Feb-22 15:52N 33°40' W 118°17'411.1
2018-Feb-22 15:30N 33°44' W 118°16'0 0.0
2018-Feb-22 01:25N 33°44' W 118°16'0 0.1
2018-Feb-22 01:00N 33°44' W 118°16'6 0.6
2018-Feb-21 16:02N 33°39' W 118°18'116.8
2018-Feb-21 15:57N 33°40' W 118°17'4 9.9
2018-Feb-21 15:30N 33°44' W 118°16'0 0.1
2018-Feb-21 15:00N 33°44' W 118°16'0 0.0
2018-Feb-21 00:50N 33°44' W 118°16'3 8.4
2018-Feb-21 00:30N 33°41' W 118°16'1 0.1
2018-Feb-20 15:54N 33°40' W 118°17'4 9.8
2018-Feb-20 15:31N 33°44' W 118°16'0 0.1
2018-Feb-20 15:00N 33°44' W 118°16'0 0.1
2018-Feb-20 14:30N 33°44' W 118°16'0 0.0
2018-Feb-18 23:50N 33°44' W 118°16'3 9.1
2018-Feb-18 23:28N 33°41' W 118°16'1813.1
2018-Feb-18 22:07N 33°27' W 118°29'17 0.4
2018-Feb-16 22:54N 33°40' W 118°17'410.2
2018-Feb-16 22:30N 33°44' W 118°16'0 0.0
2018-Feb-16 22:01N 33°44' W 118°16'4 0.7
2018-Feb-16 16:25N 33°40' W 118°17'410.3
2018-Feb-16 16:00N 33°44' W 118°16'0 0.1
2018-Feb-16 15:30N 33°44' W 118°16'0 0.0
2018-Feb-16 00:49N 33°44' W 118°16'1615.8
2018-Feb-15 23:48N 33°30' W 118°26'4 1.5
2018-Feb-15 20:56N 33°27' W 118°29'913.6
2018-Feb-15 20:14N 33°34' W 118°22'2 8.0
2018-Feb-15 19:59N 33°36' W 118°21'817.4
2018-Feb-15 19:30N 33°43' W 118°16'1 2.7
2018-Feb-15 19:00N 33°44' W 118°16'3 1.2
2018-Feb-15 16:01N 33°41' W 118°16'018.6
2018-Feb-15 16:00N 33°41' W 118°16'3 6.3
2018-Feb-15 15:30N 33°44' W 118°16'0 0.1
2018-Feb-15 15:00N 33°44' W 118°16'0 0.0
2018-Feb-15 00:48N 33°44' W 118°16'2 8.1
2018-Feb-15 00:31N 33°42' W 118°15'2 0.2
2018-Feb-14 15:59N 33°40' W 118°16'4 0.2
2018-Feb-14 00:57N 33°44' W 118°16'5 0.5
2018-Feb-13 15:57N 33°40' W 118°18'510.2
2018-Feb-13 15:30N 33°44' W 118°16'0 0.0
2018-Feb-13 15:00N 33°44' W 118°16'0 0.0
2018-Feb-13 00:49N 33°44' W 118°16'310.1
2018-Feb-13 00:30N 33°41' W 118°17'  
Track history (hours):
 
Tides and Currents Weather Stations Pressure Air Temp Water Temp Dewpoint Dewpoint Depression Visibility Wind Speed Wind Dir Waves Ship Positions

MiSS Christi

Owner: MISS CHRISTI INC, WEST HILLS, CA. More information available from US FCC via Universal Licensing System and Coast Guard Vessel Documentation Center.

Last reported at 2018-Feb-22 21:39 UTC. Time now 2018-Feb-23 10:48 UTC.
Position N 33°44' W 118°16'.

Length 15 m; draft 1.5 m.

Type: Passenger vessel. MMSI: 367311590.

Date/timePositionNaut miles runAvg speedWind from/ knotsBaromVisibWave heightAir tempDewpointWater temp
2018-Feb-22 21:39N 33°44' W 118°16'1 4.0
2018-Feb-22 21:30N 33°44' W 118°16'4 0.6
2018-Feb-22 15:52N 33°40' W 118°17'411.1
2018-Feb-22 15:30N 33°44' W 118°16'0 0.0
2018-Feb-22 01:25N 33°44' W 118°16'0 0.1
2018-Feb-22 01:00N 33°44' W 118°16'6 0.6
2018-Feb-21 16:02N 33°39' W 118°18'116.8
2018-Feb-21 15:57N 33°40' W 118°17'4 9.9
2018-Feb-21 15:30N 33°44' W 118°16'0 0.1
2018-Feb-21 15:00N 33°44' W 118°16'0 0.0
2018-Feb-21 00:50N 33°44' W 118°16'3 8.4
2018-Feb-21 00:30N 33°41' W 118°16'1 0.1
2018-Feb-20 15:54N 33°40' W 118°17'4 9.8
2018-Feb-20 15:31N 33°44' W 118°16'0 0.1
2018-Feb-20 15:00N 33°44' W 118°16'0 0.1
2018-Feb-20 14:30N 33°44' W 118°16'0 0.0
2018-Feb-18 23:50N 33°44' W 118°16'3 9.1
2018-Feb-18 23:28N 33°41' W 118°16'1813.1
2018-Feb-18 22:07N 33°27' W 118°29'17 0.4
2018-Feb-16 22:54N 33°40' W 118°17'410.2
2018-Feb-16 22:30N 33°44' W 118°16'0 0.0
2018-Feb-16 22:01N 33°44' W 118°16'4 0.7
2018-Feb-16 16:25N 33°40' W 118°17'410.3
2018-Feb-16 16:00N 33°44' W 118°16'0 0.1
2018-Feb-16 15:30N 33°44' W 118°16'0 0.0
2018-Feb-16 00:49N 33°44' W 118°16'1615.8
2018-Feb-15 23:48N 33°30' W 118°26'4 1.5
2018-Feb-15 20:56N 33°27' W 118°29'913.6
2018-Feb-15 20:14N 33°34' W 118°22'2 8.0
2018-Feb-15 19:59N 33°36' W 118°21'817.4
2018-Feb-15 19:30N 33°43' W 118°16'1 2.7
2018-Feb-15 19:00N 33°44' W 118°16'3 1.2
2018-Feb-15 16:01N 33°41' W 118°16'018.6
2018-Feb-15 16:00N 33°41' W 118°16'3 6.3
2018-Feb-15 15:30N 33°44' W 118°16'0 0.1
2018-Feb-15 15:00N 33°44' W 118°16'0 0.0
2018-Feb-15 00:48N 33°44' W 118°16'2 8.1
2018-Feb-15 00:31N 33°42' W 118°15'2 0.2
2018-Feb-14 15:59N 33°40' W 118°16'4 0.2
2018-Feb-14 00:57N 33°44' W 118°16'5 0.5
2018-Feb-13 15:57N 33°40' W 118°18'510.2
2018-Feb-13 15:30N 33°44' W 118°16'0 0.0
2018-Feb-13 15:00N 33°44' W 118°16'0 0.0
2018-Feb-13 00:49N 33°44' W 118°16'310.1
2018-Feb-13 00:30N 33°41' W 118°17'  

Dump ship's entire track history